createdAt,value
2023-05-12T00:00:55.129Z,26.2
2023-05-12T00:02:54.049Z,26.3
2023-05-12T00:04:53.673Z,26.1
2023-05-12T00:06:53.696Z,26
2023-05-12T00:08:53.687Z,25.9
2023-05-12T00:10:53.574Z,25.8
2023-05-12T00:12:53.681Z,25.8
2023-05-12T00:14:53.704Z,25.7
2023-05-12T00:16:53.707Z,25.6
2023-05-12T00:20:53.545Z,25.5
2023-05-12T00:22:53.822Z,25.5
2023-05-12T00:24:53.691Z,25.4
2023-05-12T00:26:53.656Z,25.3
2023-05-12T00:28:53.591Z,25.2
2023-05-12T00:30:53.581Z,25.1
2023-05-12T00:32:53.562Z,25.2
2023-05-12T00:34:53.576Z,25.1
2023-05-12T00:36:53.679Z,25
2023-05-12T00:38:53.648Z,24.9
2023-05-12T00:40:53.551Z,24.8
2023-05-12T00:42:53.624Z,24.9
2023-05-12T00:44:53.544Z,24.8
2023-05-12T00:46:53.555Z,24.7
2023-05-12T00:48:53.718Z,24.7
2023-05-12T00:50:53.714Z,24.6
2023-05-12T00:52:54.839Z,24.6
2023-05-12T00:54:53.510Z,24.6
2023-05-12T00:56:53.625Z,24.5
2023-05-12T00:58:53.545Z,24.4
2023-05-12T01:00:54.915Z,24.3
2023-05-12T01:02:53.644Z,24.3
2023-05-12T01:04:53.496Z,24.3
2023-05-12T01:06:53.542Z,24.2
2023-05-12T01:08:53.502Z,24.2
2023-05-12T01:10:53.538Z,24.2
2023-05-12T01:12:53.513Z,24.2
2023-05-12T01:14:53.520Z,24.1
2023-05-12T01:16:53.576Z,24.1
2023-05-12T01:18:53.562Z,24
2023-05-12T01:20:53.647Z,24
2023-05-12T01:22:53.622Z,24
2023-05-12T01:24:53.709Z,24
2023-05-12T01:26:53.605Z,23.9
2023-05-12T01:28:54.904Z,23.9
2023-05-12T01:30:56.052Z,23.8
2023-05-12T01:32:53.952Z,23.9
2023-05-12T01:34:53.462Z,23.8
2023-05-12T01:36:53.478Z,23.7
2023-05-12T01:38:53.442Z,23.7
2023-05-12T01:40:53.475Z,23.6
2023-05-12T01:42:53.550Z,23.7
2023-05-12T01:44:53.502Z,23.6
2023-05-12T01:46:53.614Z,23.5
2023-05-12T01:48:53.440Z,23.5
2023-05-12T01:50:53.501Z,23.4
2023-05-12T01:52:53.493Z,23.5
2023-05-12T01:54:54.513Z,23.5
2023-05-12T01:56:53.476Z,23.4
2023-05-12T01:58:53.482Z,23.3
2023-05-12T02:00:53.573Z,23.3
2023-05-12T02:02:53.537Z,23.4
2023-05-12T02:04:53.447Z,23.3
2023-05-12T02:06:53.431Z,23.3
2023-05-12T02:08:53.493Z,23.2
2023-05-12T02:10:53.414Z,23.2
2023-05-12T02:12:53.460Z,23.3
2023-05-12T02:14:53.778Z,23.2
2023-05-12T02:16:53.415Z,23.2
2023-05-12T02:18:53.736Z,23
2023-05-12T02:20:53.445Z,23
2023-05-12T02:22:53.439Z,23.1
2023-05-12T02:24:53.458Z,23
2023-05-12T02:26:53.405Z,23
2023-05-12T02:28:53.512Z,23
2023-05-12T02:30:53.427Z,23
2023-05-12T02:32:53.498Z,23
2023-05-12T02:34:53.399Z,22.9
2023-05-12T02:36:53.615Z,22.8
2023-05-12T02:38:53.379Z,22.8
2023-05-12T02:40:53.441Z,22.8
2023-05-12T02:42:53.390Z,22.8
2023-05-12T02:44:53.395Z,22.8
2023-05-12T02:46:53.417Z,22.7
2023-05-12T02:48:53.501Z,22.7
2023-05-12T02:50:53.394Z,22.7
2023-05-12T02:52:53.452Z,22.7
2023-05-12T02:54:53.456Z,22.7
2023-05-12T02:56:53.475Z,22.6
2023-05-12T02:58:53.404Z,22.6
2023-05-12T03:01:00.045Z,22.6
2023-05-12T03:02:53.540Z,22.6
2023-05-12T03:04:53.580Z,22.5
2023-05-12T03:06:53.384Z,22.5
2023-05-12T03:08:53.410Z,22.5
2023-05-12T03:10:53.415Z,22.4
2023-05-12T03:12:53.351Z,22.4
2023-05-12T03:14:53.419Z,22.4
2023-05-12T03:16:53.419Z,22.3
2023-05-12T03:18:53.482Z,22.3
2023-05-12T03:20:53.416Z,22.3
2023-05-12T03:22:55.998Z,22.3
2023-05-12T03:24:53.446Z,22.3
2023-05-12T03:26:53.327Z,22.2
2023-05-12T03:28:53.421Z,22.2
2023-05-12T03:30:53.347Z,22.1
2023-05-12T03:32:53.404Z,22.1
2023-05-12T03:34:53.374Z,22.1
2023-05-12T03:36:53.409Z,22.1
2023-05-12T03:38:53.478Z,22
2023-05-12T03:40:53.505Z,22
2023-05-12T03:42:53.309Z,21.9
2023-05-12T03:44:53.357Z,21.9
2023-05-12T03:46:53.495Z,21.8
2023-05-12T03:48:53.453Z,21.8
2023-05-12T03:50:53.302Z,21.7
2023-05-12T03:52:53.397Z,21.8
2023-05-12T03:54:53.334Z,21.7
2023-05-12T03:56:53.308Z,21.7
2023-05-12T03:58:53.291Z,21.6
2023-05-12T04:00:53.293Z,21.6
2023-05-12T04:02:53.450Z,21.6
2023-05-12T04:04:53.332Z,21.6
2023-05-12T04:06:53.384Z,21.6
2023-05-12T04:08:53.365Z,21.6
2023-05-12T04:10:53.371Z,21.5
2023-05-12T04:12:53.322Z,21.6
2023-05-12T04:14:53.308Z,21.5
2023-05-12T04:16:53.310Z,21.5
2023-05-12T04:18:53.374Z,21.5
2023-05-12T04:20:53.282Z,21.4
2023-05-12T04:22:53.278Z,21.4
2023-05-12T04:24:53.303Z,21.4
2023-05-12T04:26:53.277Z,21.4
2023-05-12T04:28:53.328Z,21.4
2023-05-12T04:30:53.280Z,21.3
2023-05-12T04:32:53.372Z,21.3
2023-05-12T04:34:53.391Z,21.3
2023-05-12T04:36:55.973Z,21.3
2023-05-12T04:38:53.432Z,21.2
2023-05-12T04:40:53.278Z,21.3
2023-05-12T04:42:54.810Z,21.3
2023-05-12T04:44:54.489Z,21.3
2023-05-12T04:46:53.554Z,21.2
2023-05-12T04:48:53.449Z,21.2
2023-05-12T04:50:53.296Z,21.1
2023-05-12T04:52:53.296Z,21.1
2023-05-12T04:54:53.279Z,21.1
2023-05-12T04:56:53.296Z,21.1
2023-05-12T04:58:53.336Z,21.1
2023-05-12T05:00:54.433Z,21
2023-05-12T05:02:54.588Z,20.9
2023-05-12T05:04:53.384Z,21
2023-05-12T05:06:53.214Z,21
2023-05-12T05:08:53.250Z,21
2023-05-12T05:10:53.236Z,20.9
2023-05-12T05:12:53.199Z,20.8
2023-05-12T05:14:53.287Z,20.9
2023-05-12T05:16:53.378Z,20.8
2023-05-12T05:18:53.271Z,20.8
2023-05-12T05:22:53.263Z,20.8
2023-05-12T05:24:53.237Z,20.9
2023-05-12T05:26:53.189Z,20.8
2023-05-12T05:28:53.267Z,20.8
2023-05-12T05:30:53.242Z,20.8
2023-05-12T05:32:53.333Z,20.8
2023-05-12T05:34:53.210Z,20.8
2023-05-12T05:36:53.209Z,20.8
2023-05-12T05:38:53.361Z,20.8
2023-05-12T05:40:54.399Z,20.7
2023-05-12T05:42:53.283Z,20.6
2023-05-12T05:44:53.214Z,20.7
2023-05-12T05:46:53.274Z,20.6
2023-05-12T05:48:53.308Z,20.7
2023-05-12T05:50:53.213Z,20.6
2023-05-12T05:52:53.286Z,20.6
2023-05-12T05:54:53.202Z,20.6
2023-05-12T05:56:53.223Z,20.6
2023-05-12T05:58:53.276Z,20.5
2023-05-12T06:00:53.177Z,20.6
2023-05-12T06:02:53.246Z,20.5
2023-05-12T06:04:53.176Z,20.6
2023-05-12T06:06:53.192Z,20.5
2023-05-12T06:08:53.158Z,20.5
2023-05-12T06:10:53.219Z,20.4
2023-05-12T06:12:53.177Z,20.3
2023-05-12T06:14:53.316Z,20.4
2023-05-12T06:16:53.290Z,20.4
2023-05-12T06:18:53.251Z,20.4
2023-05-12T06:20:53.541Z,20.3
2023-05-12T06:22:53.259Z,20.4
2023-05-12T06:24:53.191Z,20.4
2023-05-12T06:26:53.172Z,20.4
2023-05-12T06:28:53.173Z,20.4
2023-05-12T06:30:53.176Z,20.3
2023-05-12T06:32:53.177Z,20.3
2023-05-12T06:34:53.179Z,20.4
2023-05-12T06:36:54.886Z,20.3
2023-05-12T06:38:53.144Z,20.3
2023-05-12T06:40:53.110Z,20.2
2023-05-12T06:42:53.144Z,20.2
2023-05-12T06:44:53.122Z,20.3
2023-05-12T06:46:53.175Z,20.3
2023-05-12T06:48:53.168Z,20.2
2023-05-12T06:50:53.215Z,20.2
2023-05-12T06:52:53.295Z,20.2
2023-05-12T06:54:53.218Z,20.2
2023-05-12T06:56:53.265Z,20.2
2023-05-12T06:58:53.155Z,20.1
2023-05-12T07:00:53.111Z,20.1
2023-05-12T07:02:53.246Z,20.1
2023-05-12T07:04:53.099Z,20.2
2023-05-12T07:06:53.169Z,20.1
2023-05-12T07:08:53.139Z,20.1
2023-05-12T07:10:53.221Z,20.1
2023-05-12T07:12:53.126Z,20.1
2023-05-12T07:14:53.116Z,20.1
2023-05-12T07:16:53.146Z,20
2023-05-12T07:18:53.155Z,19.9
2023-05-12T07:20:53.083Z,20
2023-05-12T07:22:53.333Z,19.9
2023-05-12T07:24:53.217Z,20
2023-05-12T07:26:54.521Z,20
2023-05-12T07:28:53.125Z,20
2023-05-12T07:30:53.132Z,19.9
2023-05-12T07:32:53.106Z,19.9
2023-05-12T07:34:53.076Z,20
2023-05-12T07:36:53.092Z,19.9
2023-05-12T07:38:53.094Z,19.9
2023-05-12T07:40:54.321Z,19.9
2023-05-12T07:42:53.062Z,19.9
2023-05-12T07:44:53.069Z,20
2023-05-12T07:46:53.079Z,19.9
2023-05-12T07:48:53.091Z,19.8
2023-05-12T07:50:53.061Z,19.8
2023-05-12T07:52:53.053Z,19.7
2023-05-12T07:54:54.509Z,19.7
2023-05-12T07:56:54.403Z,19.7
2023-05-12T07:58:53.079Z,19.6
2023-05-12T08:00:53.086Z,19.6
2023-05-12T08:02:53.146Z,19.7
2023-05-12T08:04:53.115Z,19.7
2023-05-12T08:06:53.023Z,19.7
2023-05-12T08:08:53.018Z,19.7
2023-05-12T08:10:53.021Z,19.7
2023-05-12T08:12:53.020Z,19.6
2023-05-12T08:14:53.072Z,19.7
2023-05-12T08:16:53.111Z,19.6
2023-05-12T08:18:53.085Z,19.6
2023-05-12T08:20:53.109Z,19.6
2023-05-12T08:22:53.843Z,19.6
2023-05-12T08:24:53.058Z,19.7
2023-05-12T08:26:53.012Z,19.6
2023-05-12T08:28:53.155Z,19.6
2023-05-12T08:30:53.043Z,19.5
2023-05-12T08:32:53.076Z,19.5
2023-05-12T08:34:53.124Z,19.6
2023-05-12T08:36:52.974Z,19.5
2023-05-12T08:38:53.005Z,19.5
2023-05-12T08:40:53.017Z,19.5
2023-05-12T08:42:52.999Z,19.4
2023-05-12T08:44:52.994Z,19.5
2023-05-12T08:46:53.290Z,19.4
2023-05-12T08:48:52.974Z,19.4
2023-05-12T08:50:53.077Z,19.4
2023-05-12T08:52:52.984Z,19.4
2023-05-12T08:54:56.238Z,19.5
2023-05-12T08:58:52.981Z,19.3
2023-05-12T09:00:52.994Z,19.3
2023-05-12T09:02:54.615Z,19.4
2023-05-12T09:04:53.275Z,19.5
2023-05-12T09:06:55.045Z,19.4
2023-05-12T09:08:52.970Z,19.3
2023-05-12T09:10:52.953Z,19.2
2023-05-12T09:12:52.942Z,19.2
2023-05-12T09:14:52.963Z,19.4
2023-05-12T09:16:53.051Z,19.3
2023-05-12T09:18:53.060Z,19.3
2023-05-12T09:20:52.971Z,19.3
2023-05-12T09:22:52.970Z,19.2
2023-05-12T09:24:52.964Z,19.3
2023-05-12T09:26:52.954Z,19.3
2023-05-12T09:28:53.060Z,19.3
2023-05-12T09:30:52.934Z,19.3
2023-05-12T09:32:53.174Z,19.3
2023-05-12T09:34:52.936Z,19.4
2023-05-12T09:36:53.005Z,19.3
2023-05-12T09:38:53.026Z,19.4
2023-05-12T09:40:52.945Z,19.3
2023-05-12T09:42:53.086Z,19.3
2023-05-12T09:44:53.016Z,19.4
2023-05-12T09:46:53.040Z,19.4
2023-05-12T09:48:52.974Z,19.2
2023-05-12T09:50:54.226Z,19.3
2023-05-12T09:52:52.982Z,19.3
2023-05-12T09:54:52.977Z,19.3
2023-05-12T09:56:52.959Z,19.2
2023-05-12T09:58:52.963Z,19.2
2023-05-12T10:02:54.480Z,19.3
2023-05-12T10:04:53.031Z,19.4
2023-05-12T10:06:52.945Z,19.4
2023-05-12T10:08:54.381Z,19.4
2023-05-12T10:10:53.022Z,19.3
2023-05-12T10:12:54.339Z,19.3
2023-05-12T10:14:53.022Z,19.4
2023-05-12T10:16:53.221Z,19.3
2023-05-12T10:18:53.175Z,19.3
2023-05-12T10:20:54.247Z,19.2
2023-05-12T10:22:54.269Z,19.3
2023-05-12T10:24:52.888Z,19.3
2023-05-12T10:26:53.049Z,19.3
2023-05-12T10:28:52.897Z,19.3
2023-05-12T10:30:53.027Z,19.4
2023-05-12T10:32:53.229Z,19.4
2023-05-12T10:34:52.921Z,19.4
2023-05-12T10:36:54.230Z,19.4
2023-05-12T10:38:52.971Z,19.4
2023-05-12T10:40:52.953Z,19.4
2023-05-12T10:42:52.963Z,19.5
2023-05-12T10:44:53.031Z,19.6
2023-05-12T10:46:53.022Z,19.5
2023-05-12T10:48:52.875Z,19.5
2023-05-12T10:50:52.953Z,19.5
2023-05-12T10:52:53.069Z,19.5
2023-05-12T10:54:54.346Z,19.6
2023-05-12T10:56:54.151Z,19.6
2023-05-12T10:58:54.516Z,19.5
2023-05-12T11:01:01.035Z,19.6
2023-05-12T11:02:54.009Z,19.6
2023-05-12T11:04:53.196Z,19.7
2023-05-12T11:06:53.215Z,19.7
2023-05-12T11:08:53.212Z,19.6
2023-05-12T11:10:53.437Z,19.7
2023-05-12T11:12:55.420Z,19.8
2023-05-12T11:14:53.106Z,19.9
2023-05-12T11:16:52.937Z,19.9
2023-05-12T11:18:52.867Z,19.9
2023-05-12T11:20:54.187Z,20
2023-05-12T11:22:52.940Z,20
2023-05-12T11:24:53.198Z,20
2023-05-12T11:26:52.824Z,20.1
2023-05-12T11:28:54.191Z,20
2023-05-12T11:30:55.375Z,20
2023-05-12T11:32:52.837Z,20.1
2023-05-12T11:34:52.924Z,20.3
2023-05-12T11:36:52.991Z,20.3
2023-05-12T11:38:54.073Z,20.3
2023-05-12T11:40:52.891Z,20.3
2023-05-12T11:42:54.366Z,20.4
2023-05-12T11:44:52.851Z,20.4
2023-05-12T11:46:53.787Z,20.3
2023-05-12T11:48:52.836Z,20.4
2023-05-12T11:50:53.008Z,20.6
2023-05-12T11:52:52.876Z,20.4
2023-05-12T11:54:52.926Z,20.7
2023-05-12T11:56:52.805Z,20.6
2023-05-12T11:58:53.025Z,20.7
2023-05-12T12:00:52.891Z,20.7
2023-05-12T12:02:57.230Z,20.9
2023-05-12T12:04:52.876Z,21.1
2023-05-12T12:06:52.906Z,21
2023-05-12T12:08:52.880Z,21.3
2023-05-12T12:10:52.909Z,21.4
2023-05-12T12:12:52.776Z,21.6
2023-05-12T12:14:52.895Z,21.8
2023-05-12T12:16:52.871Z,21.7
2023-05-12T12:18:53.116Z,22.1
2023-05-12T12:20:52.824Z,22.3
2023-05-12T12:22:52.895Z,22.8
2023-05-12T12:24:52.827Z,22.7
2023-05-12T12:26:54.210Z,23
2023-05-12T12:28:52.839Z,23.3
2023-05-12T12:30:52.890Z,23.6
2023-05-12T12:32:52.877Z,23.8
2023-05-12T12:34:52.904Z,23.9
2023-05-12T12:36:52.787Z,24.2
2023-05-12T12:38:52.773Z,24.5
2023-05-12T12:40:52.735Z,24.9
2023-05-12T12:42:52.800Z,25
2023-05-12T12:44:52.864Z,25.6
2023-05-12T12:46:52.846Z,25.8
2023-05-12T12:48:53.722Z,26.1
2023-05-12T12:50:52.758Z,26.6
2023-05-12T12:52:52.809Z,26.9
2023-05-12T12:54:52.810Z,27.1
2023-05-12T12:56:52.768Z,27
2023-05-12T12:58:52.903Z,27.1
2023-05-12T13:00:52.885Z,27.6
2023-05-12T13:02:53.000Z,28.2
2023-05-12T13:04:52.702Z,28.4
2023-05-12T13:06:57.409Z,28.6
2023-05-12T13:08:52.980Z,28.3
2023-05-12T13:10:54.052Z,28.4
2023-05-12T13:12:52.815Z,28.8
2023-05-12T13:14:59.629Z,29
2023-05-12T13:16:52.770Z,27.8
2023-05-12T13:18:52.842Z,27.5
2023-05-12T13:20:52.731Z,27.4
2023-05-12T13:22:52.813Z,27.5
2023-05-12T13:24:52.873Z,27.5
2023-05-12T13:26:52.935Z,27.6
2023-05-12T13:28:52.815Z,27.4
2023-05-12T13:30:52.944Z,27.5
2023-05-12T13:32:57.395Z,27.6
2023-05-12T13:34:52.913Z,27.4
2023-05-12T13:36:52.663Z,27.3
2023-05-12T13:38:53.869Z,27.4
2023-05-12T13:40:52.776Z,27.4
2023-05-12T13:42:52.694Z,27.4
2023-05-12T13:44:52.887Z,27.5
2023-05-12T13:46:52.747Z,27.6
2023-05-12T13:48:54.079Z,27.6
2023-05-12T13:50:52.741Z,27.4
2023-05-12T13:52:52.710Z,27.1
2023-05-12T13:54:54.232Z,27.5
2023-05-12T13:56:52.762Z,27.7
2023-05-12T13:58:52.990Z,27.6
2023-05-12T14:00:52.722Z,27.6
2023-05-12T14:02:52.970Z,27.7
2023-05-12T14:04:52.867Z,27.5
2023-05-12T14:06:52.653Z,27.8
2023-05-12T14:08:53.189Z,27.8
2023-05-12T14:10:52.748Z,28
2023-05-12T14:12:52.778Z,28.1
2023-05-12T14:14:52.794Z,28.3
2023-05-12T14:16:53.934Z,28.4
2023-05-12T14:18:52.658Z,28.4
2023-05-12T14:20:52.880Z,28.2
2023-05-12T14:22:52.668Z,28.2
2023-05-12T14:24:52.840Z,28.2
2023-05-12T14:26:52.827Z,28.3
2023-05-12T14:28:52.873Z,28.5
2023-05-12T14:30:52.810Z,28.6
2023-05-12T14:32:52.950Z,28.8
2023-05-12T14:34:52.639Z,28.8
2023-05-12T14:36:52.614Z,29
2023-05-12T14:38:52.876Z,28.9
2023-05-12T14:40:52.723Z,29
2023-05-12T14:42:52.715Z,28.9
2023-05-12T14:44:52.926Z,29
2023-05-12T14:46:52.663Z,29.1
2023-05-12T14:48:54.084Z,29.1
2023-05-12T14:50:52.664Z,29
2023-05-12T14:52:52.730Z,29.1
2023-05-12T14:54:52.642Z,29.2
2023-05-12T14:56:52.780Z,29.1
2023-05-12T14:58:53.995Z,29.2
2023-05-12T15:00:52.643Z,29.2
2023-05-12T15:02:52.760Z,29.4
2023-05-12T15:04:52.589Z,29.5
2023-05-12T15:06:53.849Z,29.4
2023-05-12T15:08:55.169Z,29.4
2023-05-12T15:10:52.661Z,29.6
2023-05-12T15:12:52.853Z,29.6
2023-05-12T15:14:54.014Z,29.7
2023-05-12T15:16:52.665Z,29.9
2023-05-12T15:18:52.815Z,29.9
2023-05-12T15:20:52.685Z,30
2023-05-12T15:22:52.595Z,30
2023-05-12T15:24:52.688Z,29.8
2023-05-12T15:26:52.624Z,29.8
2023-05-12T15:28:52.752Z,30
2023-05-12T15:30:52.727Z,30.1
2023-05-12T15:32:52.715Z,30.1
2023-05-12T15:34:52.737Z,29.5
2023-05-12T15:36:52.573Z,29.7
2023-05-12T15:38:52.740Z,29.9
2023-05-12T15:40:52.619Z,30
2023-05-12T15:42:52.829Z,30.1
2023-05-12T15:44:52.616Z,30.2
2023-05-12T15:46:55.307Z,30.3
2023-05-12T15:48:53.610Z,30.4
2023-05-12T15:50:53.746Z,30.3
2023-05-12T15:52:53.108Z,30.2
2023-05-12T15:54:52.694Z,30.2
2023-05-12T15:56:53.680Z,30.6
2023-05-12T15:58:52.556Z,30.7
2023-05-12T16:00:52.817Z,30.8
2023-05-12T16:02:52.844Z,30.9
2023-05-12T16:04:52.624Z,30.9
2023-05-12T16:06:52.638Z,31.1
2023-05-12T16:08:52.768Z,31
2023-05-12T16:10:53.872Z,31.1
2023-05-12T16:12:52.923Z,31.2
2023-05-12T16:14:52.688Z,31.2
2023-05-12T16:16:52.699Z,31.1
2023-05-12T16:18:52.656Z,31.3
2023-05-12T16:20:52.744Z,31.3
2023-05-12T16:22:52.686Z,31.4
2023-05-12T16:24:55.389Z,31.6
2023-05-12T16:26:52.531Z,31.8
2023-05-12T16:28:52.587Z,31.6
2023-05-12T16:30:52.759Z,31.7
2023-05-12T16:32:52.508Z,31.7
2023-05-12T16:34:52.541Z,31.7
2023-05-12T16:36:55.171Z,31.9
2023-05-12T16:38:52.496Z,32.1
2023-05-12T16:40:52.747Z,32.1
2023-05-12T16:42:57.078Z,31.8
2023-05-12T16:44:52.770Z,31.9
2023-05-12T16:46:52.637Z,31.8
2023-05-12T16:48:52.687Z,31.8
2023-05-12T16:51:01.377Z,31.7
2023-05-12T16:52:52.562Z,31.9
2023-05-12T16:54:52.661Z,31.8
2023-05-12T16:56:53.270Z,32
2023-05-12T16:58:52.560Z,31.7
2023-05-12T17:00:52.949Z,31.8
2023-05-12T17:02:52.615Z,31.9
2023-05-12T17:04:52.556Z,32.1
2023-05-12T17:06:52.524Z,32.2
2023-05-12T17:08:52.655Z,32.2
2023-05-12T17:10:52.575Z,32.3
2023-05-12T17:12:52.460Z,32.4
2023-05-12T17:15:06.635Z,32.4
2023-05-12T17:16:52.671Z,32.5
2023-05-12T17:20:53.861Z,32.3
2023-05-12T17:22:52.762Z,32.3
2023-05-12T17:24:52.504Z,32.3
2023-05-12T17:26:53.862Z,32.3
2023-05-12T17:28:52.569Z,32.4
2023-05-12T17:30:53.623Z,32.1
2023-05-12T17:32:52.719Z,32.2
2023-05-12T17:34:52.423Z,32.1
2023-05-12T17:36:52.536Z,32.4
2023-05-12T17:38:52.576Z,32.4
2023-05-12T17:40:52.572Z,32.3
2023-05-12T17:42:52.492Z,32.5
2023-05-12T17:44:52.654Z,32.6
2023-05-12T17:46:52.518Z,32.8
2023-05-12T17:48:53.723Z,32.7
2023-05-12T17:50:52.535Z,32.6
2023-05-12T17:52:52.493Z,32.4
2023-05-12T17:54:53.538Z,32.3
2023-05-12T17:56:53.882Z,32.4
2023-05-12T17:58:54.939Z,32.4
2023-05-12T18:00:52.412Z,32.5
2023-05-12T18:02:53.766Z,32.5
2023-05-12T18:04:52.422Z,32.5
2023-05-12T18:06:53.538Z,32.8
2023-05-12T18:08:52.466Z,32.5
2023-05-12T18:10:52.601Z,32.6
2023-05-12T18:12:55.575Z,32.7
2023-05-12T18:14:52.461Z,32.8
2023-05-12T18:16:52.466Z,32.8
2023-05-12T18:18:52.511Z,32.6
2023-05-12T18:20:52.509Z,32.8
2023-05-12T18:22:53.961Z,33
2023-05-12T18:24:52.477Z,32.9
2023-05-12T18:26:52.727Z,33
2023-05-12T18:28:52.701Z,32.8
2023-05-12T18:30:53.430Z,33.1
2023-05-12T18:32:52.641Z,33.1
2023-05-12T18:34:55.170Z,33.2
2023-05-12T18:36:52.636Z,33.4
2023-05-12T18:38:52.401Z,33.3
2023-05-12T18:40:52.551Z,33.3
2023-05-12T18:42:53.536Z,33.3
2023-05-12T18:44:52.436Z,33.1
2023-05-12T18:46:52.440Z,33.3
2023-05-12T18:48:52.419Z,33.2
2023-05-12T18:50:52.356Z,33.4
2023-05-12T18:52:52.436Z,33.5
2023-05-12T18:54:52.405Z,33.5
2023-05-12T18:56:52.425Z,33.6
2023-05-12T18:58:52.413Z,33.6
2023-05-12T19:00:52.347Z,33.6
2023-05-12T19:02:52.655Z,33.3
2023-05-12T19:04:52.713Z,33.3
2023-05-12T19:06:55.002Z,33.6
2023-05-12T21:45:30.911Z,33.7
2023-05-12T21:46:59.992Z,33.6
2023-05-12T21:48:59.871Z,33.4
2023-05-12T21:50:59.880Z,32.9
2023-05-12T21:52:59.885Z,32.7
2023-05-12T21:54:59.922Z,32.7
2023-05-12T21:56:59.933Z,32.5
2023-05-12T21:58:59.952Z,32.1
2023-05-12T22:00:59.926Z,32.3
2023-05-12T22:03:00.183Z,32.5
2023-05-12T22:05:36.029Z,32.6
2023-05-12T22:06:50.092Z,32.6
2023-05-12T22:08:15.414Z,32.7
